Cherokee, Kansas
Current Conditions -  °F | °C
As of 12:15 PM on Sunday 25 Jan 2015 (Local Time) from KPTS Reporting Station
Overcast Overcast  
Wind Chill: 34°   Ceiling: 2600
Heat Index: 42°   Visibility: 10mi
Dew Point: 33°   Wind: 17mph
Humidity: 69%   Direction: 330°NNW
Pressure: 29.84"   Gusts: 28mph
Location:  37.35°N, 94.81°W
Report Text: KPTS 251815Z AUTO 33015G24KT 10SM OVC026 06/00 A2984 RMK AO2 T00560003
Loading
Personal Weather Stations






























Interactive Weather Map New forecast layout! Learn more

10-Day Weather Forecast

Advertisements
Track Severe Weather on mobile